Terminal Aerodrome Forecast
Issued by NWS

Home | Current Version | Previous Version | Text Only | Print | Product List | Glossary On
Versions: 1 2 3 4 5 6 7 8 9 10 11 12 13 14 15 16
615
FTUS45 KRIW 012307 AAA
TAFCPR
TAF AMD
KCPR 012307Z 0123/0218 27008KT P6SM -SN BKN030
     FM020200 VRB05KT P6SM VCSH BKN040
     FM020900 01006KT P6SM VCSH SCT019 BKN030
     FM021400 VRB05KT P6SM SCT020 BKN035=

USA.gov is the U.S. government's official web portal to all federal, state and local government web resources and services.